<?xml version='1.0' encoding='UTF-8'?><gpx version="1.1" creator="JPX - https://github.com/jenetics/jpx" xmlns="http://www.topografix.com/GPX/1/1"><trk><trkseg><trkpt lat="45.7595386" lon="8.9681595"><ele>385.0</ele><time>2026-03-27T15:05:23.263Z</time></trkpt><trkpt lat="45.7595828" lon="8.9680845"><ele>385.0</ele><time>2026-03-27T15:05:32.314Z</time></trkpt><trkpt lat="45.7596496" lon="8.9680415"><ele>385.0</ele><time>2026-03-27T15:05:38.325Z</time></trkpt><trkpt lat="45.7597082" lon="8.9681057"><ele>385.0</ele><time>2026-03-27T15:05:44.229Z</time></trkpt><trkpt lat="45.7597501" lon="8.9681923"><ele>385.0</ele><time>2026-03-27T15:05:50.301Z</time></trkpt><trkpt lat="45.7597956" lon="8.9682599"><ele>385.0</ele><time>2026-03-27T15:06:01.299Z</time></trkpt><trkpt lat="45.7598247" lon="8.9683457"><ele>385.0</ele><time>2026-03-27T15:06:04.278Z</time></trkpt><trkpt lat="45.7598521" lon="8.9684565"><ele>384.50000000000006</ele><time>2026-03-27T15:06:07.257Z</time></trkpt><trkpt lat="45.7598829" lon="8.9685657"><ele>384.0</ele><time>2026-03-27T15:06:10.235Z</time></trkpt><trkpt lat="45.7599041" lon="8.9686897"><ele>383.5</ele><time>2026-03-27T15:06:13.228Z</time></trkpt><trkpt lat="45.7599242" lon="8.9688086"><ele>383.0</ele><time>2026-03-27T15:06:16.23Z</time></trkpt><trkpt lat="45.7599442" lon="8.9689172"><ele>382.5</ele><time>2026-03-27T15:06:19.35Z</time></trkpt><trkpt lat="45.7599701" lon="8.9690193"><ele>382.0</ele><time>2026-03-27T15:06:23.296Z</time></trkpt><trkpt lat="45.7599817" lon="8.9691173"><ele>381.7142857142857</ele><time>2026-03-27T15:06:26.274Z</time></trkpt><trkpt lat="45.7599527" lon="8.9692189"><ele>381.4285714285714</ele><time>2026-03-27T15:06:30.268Z</time></trkpt><trkpt lat="45.7598947" lon="8.9692755"><ele>381.1428571428571</ele><time>2026-03-27T15:06:43.345Z</time></trkpt><trkpt lat="45.7598197" lon="8.9693092"><ele>380.8571428571429</ele><time>2026-03-27T15:06:47.241Z</time></trkpt><trkpt lat="45.7597537" lon="8.9693599"><ele>380.57142857142856</ele><time>2026-03-27T15:06:50.288Z</time></trkpt><trkpt lat="45.7596856" lon="8.9693902"><ele>380.2857142857143</ele><time>2026-03-27T15:06:53.191Z</time></trkpt><trkpt lat="45.7596091" lon="8.9693849"><ele>380.0</ele><time>2026-03-27T15:06:56.291Z</time></trkpt><trkpt lat="45.7595516" lon="8.9693382"><ele>380.0</ele><time>2026-03-27T15:06:59.27Z</time></trkpt><trkpt lat="45.7594924" lon="8.9694069"><ele>380.0</ele><time>2026-03-27T15:07:06.258Z</time></trkpt><trkpt lat="45.7594026" lon="8.9694046"><ele>380.0</ele><time>2026-03-27T15:07:11.253Z</time></trkpt><trkpt lat="45.7593027" lon="8.9696018"><ele>380.0</ele><time>2026-03-27T15:07:25.276Z</time></trkpt><trkpt lat="45.7592574" lon="8.9696739"><ele>380.0</ele><time>2026-03-27T15:07:30.316Z</time></trkpt><trkpt lat="45.7592348" lon="8.9697783"><ele>379.5</ele><time>2026-03-27T15:07:35.243Z</time></trkpt><trkpt lat="45.7592295" lon="8.9698712"><ele>379.0</ele><time>2026-03-27T15:07:38.314Z</time></trkpt><trkpt lat="45.7592274" lon="8.9699752"><ele>378.5</ele><time>2026-03-27T15:07:41.314Z</time></trkpt><trkpt lat="45.7592502" lon="8.9700764"><ele>378.0</ele><time>2026-03-27T15:07:45.293Z</time></trkpt><trkpt lat="45.7592912" lon="8.9701504"><ele>377.5</ele><time>2026-03-27T15:07:51.155Z</time></trkpt><trkpt lat="45.7593588" lon="8.9701599"><ele>377.0</ele><time>2026-03-27T15:07:58.191Z</time></trkpt><trkpt lat="45.7595016" lon="8.9701187"><ele>376.2857142857143</ele><time>2026-03-27T15:08:08.236Z</time></trkpt><trkpt lat="45.7595794" lon="8.970094"><ele>375.57142857142856</ele><time>2026-03-27T15:08:12.334Z</time></trkpt><trkpt lat="45.7596311" lon="8.9701488"><ele>374.8571428571429</ele><time>2026-03-27T15:08:14.308Z</time></trkpt><trkpt lat="45.7597068" lon="8.9701579"><ele>374.1428571428571</ele><time>2026-03-27T15:08:17.251Z</time></trkpt><trkpt lat="45.7597806" lon="8.9701311"><ele>373.42857142857144</ele><time>2026-03-27T15:08:20.134Z</time></trkpt><trkpt lat="45.7598511" lon="8.9700986"><ele>372.7142857142857</ele><time>2026-03-27T15:08:23.312Z</time></trkpt><trkpt lat="45.7599169" lon="8.9700999"><ele>372.0</ele><time>2026-03-27T15:08:26.23Z</time></trkpt><trkpt lat="45.75998" lon="8.9701036"><ele>372.00000000000006</ele><time>2026-03-27T15:08:29.316Z</time></trkpt><trkpt lat="45.7600465" lon="8.9701123"><ele>372.0</ele><time>2026-03-27T15:08:33.325Z</time></trkpt><trkpt lat="45.7601104" lon="8.9700541"><ele>372.0</ele><time>2026-03-27T15:08:37.308Z</time></trkpt><trkpt lat="45.7601671" lon="8.9700058"><ele>372.0</ele><time>2026-03-27T15:08:41.23Z</time></trkpt><trkpt lat="45.7602427" lon="8.9699823"><ele>372.0</ele><time>2026-03-27T15:08:46.23Z</time></trkpt><trkpt lat="45.7603102" lon="8.9699735"><ele>372.00000000000006</ele><time>2026-03-27T15:08:49.494Z</time></trkpt><trkpt lat="45.7603689" lon="8.969928"><ele>372.0</ele><time>2026-03-27T15:08:55.992Z</time></trkpt><trkpt lat="45.7604415" lon="8.9698947"><ele>374.75</ele><time>2026-03-27T15:09:00.247Z</time></trkpt><trkpt lat="45.7605625" lon="8.9698057"><ele>377.5</ele><time>2026-03-27T15:09:03.213Z</time></trkpt><trkpt lat="45.7606309" lon="8.9697546"><ele>380.25</ele><time>2026-03-27T15:09:07.285Z</time></trkpt><trkpt lat="45.7608183" lon="8.9696269"><ele>383.0</ele><time>2026-03-27T15:09:20.188Z</time></trkpt><trkpt lat="45.7608888" lon="8.9695949"><ele>383.0</ele><time>2026-03-27T15:09:23.214Z</time></trkpt><trkpt lat="45.7609588" lon="8.9695722"><ele>383.0</ele><time>2026-03-27T15:09:31.109Z</time></trkpt><trkpt lat="45.7610952" lon="8.9695487"><ele>383.0</ele><time>2026-03-27T15:09:33.268Z</time></trkpt><trkpt lat="45.7611686" lon="8.9695419"><ele>383.0</ele><time>2026-03-27T15:09:38.167Z</time></trkpt><trkpt lat="45.7612927" lon="8.9695302"><ele>383.0</ele><time>2026-03-27T15:09:39.109Z</time></trkpt><trkpt lat="45.761367" lon="8.9695345"><ele>383.1666666666667</ele><time>2026-03-27T15:09:41.26Z</time></trkpt><trkpt lat="45.7614488" lon="8.9695192"><ele>383.33333333333337</ele><time>2026-03-27T15:09:44.273Z</time></trkpt><trkpt lat="45.7615157" lon="8.9695142"><ele>383.5</ele><time>2026-03-27T15:09:47.228Z</time></trkpt><trkpt lat="45.7616229" lon="8.9696069"><ele>383.6666666666667</ele><time>2026-03-27T15:09:51.227Z</time></trkpt><trkpt lat="45.7616819" lon="8.9696408"><ele>383.8333333333333</ele><time>2026-03-27T15:09:54.227Z</time></trkpt><trkpt lat="45.7617465" lon="8.9696546"><ele>384.0</ele><time>2026-03-27T15:10:00.278Z</time></trkpt><trkpt lat="45.7618986" lon="8.9696097"><ele>385.25</ele><time>2026-03-27T15:10:07.253Z</time></trkpt><trkpt lat="45.7620055" lon="8.969603"><ele>386.5</ele><time>2026-03-27T15:10:12.306Z</time></trkpt><trkpt lat="45.7621064" lon="8.9694926"><ele>387.75</ele><time>2026-03-27T15:10:21.242Z</time></trkpt><trkpt lat="45.7621744" lon="8.9694532"><ele>389.0</ele><time>2026-03-27T15:10:25.187Z</time></trkpt><trkpt lat="45.7623475" lon="8.969489"><ele>389.0</ele><time>2026-03-27T15:10:34.302Z</time></trkpt><trkpt lat="45.7624247" lon="8.9694817"><ele>389.0</ele><time>2026-03-27T15:10:37.307Z</time></trkpt><trkpt lat="45.7625097" lon="8.9694658"><ele>389.0</ele><time>2026-03-27T15:10:41.574Z</time></trkpt><trkpt lat="45.7625868" lon="8.9694517"><ele>389.0</ele><time>2026-03-27T15:10:42.633Z</time></trkpt><trkpt lat="45.7627602" lon="8.9694156"><ele>389.0</ele><time>2026-03-27T15:10:48.249Z</time></trkpt><trkpt lat="45.7628434" lon="8.9694062"><ele>391.16666666666663</ele><time>2026-03-27T15:10:52.247Z</time></trkpt><trkpt lat="45.7629199" lon="8.9693978"><ele>393.3333333333333</ele><time>2026-03-27T15:10:55.267Z</time></trkpt><trkpt lat="45.7629921" lon="8.9694001"><ele>395.5</ele><time>2026-03-27T15:10:59.277Z</time></trkpt><trkpt lat="45.7630626" lon="8.9693828"><ele>397.66666666666663</ele><time>2026-03-27T15:11:08.229Z</time></trkpt><trkpt lat="45.7631262" lon="8.9693707"><ele>399.8333333333333</ele><time>2026-03-27T15:11:12.248Z</time></trkpt><trkpt lat="45.763255" lon="8.9694216"><ele>402.0</ele><time>2026-03-27T15:11:15.189Z</time></trkpt><trkpt lat="45.7633294" lon="8.9694356"><ele>402.0</ele><time>2026-03-27T15:11:19.327Z</time></trkpt><trkpt lat="45.763394" lon="8.9693996"><ele>402.0</ele><time>2026-03-27T15:11:25.208Z</time></trkpt><trkpt lat="45.7634531" lon="8.9693679"><ele>402.0</ele><time>2026-03-27T15:11:32.149Z</time></trkpt><trkpt lat="45.7634868" lon="8.969281"><ele>402.0</ele><time>2026-03-27T15:11:41.227Z</time></trkpt><trkpt lat="45.7635199" lon="8.9691629"><ele>402.0</ele><time>2026-03-27T15:11:49.229Z</time></trkpt><trkpt lat="45.7635453" lon="8.9690588"><ele>402.0</ele><time>2026-03-27T15:11:50.249Z</time></trkpt><trkpt lat="45.7635881" lon="8.9689918"><ele>402.0</ele><time>2026-03-27T15:11:54.267Z</time></trkpt><trkpt lat="45.763768" lon="8.9689528"><ele>401.6</ele><time>2026-03-27T15:12:01.255Z</time></trkpt><trkpt lat="45.7638768" lon="8.9687694"><ele>401.20000000000005</ele><time>2026-03-27T15:12:08.288Z</time></trkpt><trkpt lat="45.7639187" lon="8.9686764"><ele>400.8</ele><time>2026-03-27T15:12:10.305Z</time></trkpt><trkpt lat="45.763976" lon="8.9685012"><ele>400.4</ele><time>2026-03-27T15:12:13.284Z</time></trkpt><trkpt lat="45.764005" lon="8.9684162"><ele>400.0</ele><time>2026-03-27T15:12:15.285Z</time></trkpt><trkpt lat="45.7640765" lon="8.9683721"><ele>400.00000000000006</ele><time>2026-03-27T15:12:20.272Z</time></trkpt><trkpt lat="45.7641454" lon="8.968346"><ele>400.0</ele><time>2026-03-27T15:12:24.231Z</time></trkpt><trkpt lat="45.7642494" lon="8.9683698"><ele>400.0</ele><time>2026-03-27T15:12:27.535Z</time></trkpt><trkpt lat="45.7643273" lon="8.9683699"><ele>400.0</ele><time>2026-03-27T15:12:34.17Z</time></trkpt><trkpt lat="45.7644244" lon="8.9684136"><ele>400.00000000000006</ele><time>2026-03-27T15:12:35.28Z</time></trkpt><trkpt lat="45.7644951" lon="8.9684649"><ele>400.0</ele><time>2026-03-27T15:12:38.258Z</time></trkpt><trkpt lat="45.7645472" lon="8.9685191"><ele>400.1666666666667</ele><time>2026-03-27T15:12:42.312Z</time></trkpt><trkpt lat="45.7646115" lon="8.9685463"><ele>400.33333333333337</ele><time>2026-03-27T15:12:49.256Z</time></trkpt><trkpt lat="45.7647403" lon="8.9686618"><ele>400.5</ele><time>2026-03-27T15:12:59.206Z</time></trkpt><trkpt lat="45.7647878" lon="8.9687263"><ele>400.66666666666663</ele><time>2026-03-27T15:13:04.351Z</time></trkpt><trkpt lat="45.76485" lon="8.9687906"><ele>400.8333333333333</ele><time>2026-03-27T15:13:09.304Z</time></trkpt><trkpt lat="45.7649066" lon="8.9688448"><ele>401.0</ele><time>2026-03-27T15:13:11.153Z</time></trkpt><trkpt lat="45.7649806" lon="8.9688954"><ele>401.0</ele><time>2026-03-27T15:13:14.23Z</time></trkpt><trkpt lat="45.7650501" lon="8.9689169"><ele>401.0</ele><time>2026-03-27T15:13:16.911Z</time></trkpt><trkpt lat="45.7651232" lon="8.9689593"><ele>401.0</ele><time>2026-03-27T15:13:20.302Z</time></trkpt><trkpt lat="45.7651817" lon="8.9690345"><ele>401.0</ele><time>2026-03-27T15:13:25.228Z</time></trkpt><trkpt lat="45.76521" lon="8.9691203"><ele>401.0</ele><time>2026-03-27T15:13:29.238Z</time></trkpt><trkpt lat="45.7652495" lon="8.9691928"><ele>401.0</ele><time>2026-03-27T15:13:36.328Z</time></trkpt><trkpt lat="45.7652866" lon="8.969278"><ele>401.0</ele><time>2026-03-27T15:13:42.21Z</time></trkpt><trkpt lat="45.7653287" lon="8.9693657"><ele>402.14285714285717</ele><time>2026-03-27T15:13:48.255Z</time></trkpt><trkpt lat="45.7653743" lon="8.9694537"><ele>403.28571428571433</ele><time>2026-03-27T15:13:50.29Z</time></trkpt><trkpt lat="45.7654228" lon="8.9695501"><ele>404.42857142857144</ele><time>2026-03-27T15:13:54.29Z</time></trkpt><trkpt lat="45.7654648" lon="8.9696284"><ele>405.57142857142856</ele><time>2026-03-27T15:13:59.253Z</time></trkpt><trkpt lat="45.7654967" lon="8.9697087"><ele>406.7142857142857</ele><time>2026-03-27T15:14:07.272Z</time></trkpt><trkpt lat="45.7655531" lon="8.9697707"><ele>407.85714285714283</ele><time>2026-03-27T15:14:11.288Z</time></trkpt><trkpt lat="45.765603" lon="8.9698627"><ele>409.0</ele><time>2026-03-27T15:14:14.487Z</time></trkpt><trkpt lat="45.7656431" lon="8.9699468"><ele>409.2</ele><time>2026-03-27T15:14:17.709Z</time></trkpt><trkpt lat="45.7656838" lon="8.9700462"><ele>409.4</ele><time>2026-03-27T15:14:22.034Z</time></trkpt><trkpt lat="45.765792" lon="8.9702288"><ele>409.6</ele><time>2026-03-27T15:14:29.268Z</time></trkpt><trkpt lat="45.7658346" lon="8.9703143"><ele>409.8</ele><time>2026-03-27T15:14:33.278Z</time></trkpt><trkpt lat="45.7658832" lon="8.9703994"><ele>410.0</ele><time>2026-03-27T15:14:36.531Z</time></trkpt><trkpt lat="45.7659361" lon="8.970483"><ele>409.99999999999994</ele><time>2026-03-27T15:14:37.571Z</time></trkpt><trkpt lat="45.7659899" lon="8.9705488"><ele>410.0</ele><time>2026-03-27T15:14:41.819Z</time></trkpt><trkpt lat="45.7660713" lon="8.970763"><ele>410.0</ele><time>2026-03-27T15:14:47.151Z</time></trkpt><trkpt lat="45.7661035" lon="8.9708486"><ele>410.0</ele><time>2026-03-27T15:14:51.264Z</time></trkpt><trkpt lat="45.766142" lon="8.9709236"><ele>409.99999999999994</ele><time>2026-03-27T15:14:55.158Z</time></trkpt><trkpt lat="45.7661964" lon="8.9709827"><ele>410.0</ele><time>2026-03-27T15:14:58.292Z</time></trkpt><trkpt lat="45.7662511" lon="8.9710414"><ele>409.7142857142857</ele><time>2026-03-27T15:15:01.228Z</time></trkpt><trkpt lat="45.7663115" lon="8.9710829"><ele>409.4285714285714</ele><time>2026-03-27T15:15:06.272Z</time></trkpt><trkpt lat="45.7663804" lon="8.9710573"><ele>409.1428571428571</ele><time>2026-03-27T15:15:12.287Z</time></trkpt><trkpt lat="45.7664723" lon="8.9710493"><ele>408.8571428571429</ele><time>2026-03-27T15:15:16.238Z</time></trkpt><trkpt lat="45.7665472" lon="8.9710558"><ele>408.57142857142856</ele><time>2026-03-27T15:15:19.227Z</time></trkpt><trkpt lat="45.7666251" lon="8.9710568"><ele>408.2857142857143</ele><time>2026-03-27T15:15:22.31Z</time></trkpt><trkpt lat="45.7666894" lon="8.9710381"><ele>408.0</ele><time>2026-03-27T15:15:25.289Z</time></trkpt><trkpt lat="45.7667641" lon="8.9710323"><ele>408.0</ele><time>2026-03-27T15:15:29.252Z</time></trkpt><trkpt lat="45.7668395" lon="8.9710405"><ele>408.0</ele><time>2026-03-27T15:15:33.308Z</time></trkpt><trkpt lat="45.7669155" lon="8.9710494"><ele>408.0</ele><time>2026-03-27T15:15:37.347Z</time></trkpt><trkpt lat="45.7669781" lon="8.9710653"><ele>408.0</ele><time>2026-03-27T15:15:43.148Z</time></trkpt><trkpt lat="45.7670482" lon="8.9710522"><ele>408.0</ele><time>2026-03-27T15:15:46.274Z</time></trkpt><trkpt lat="45.7671166" lon="8.9710458"><ele>408.0</ele><time>2026-03-27T15:15:49.014Z</time></trkpt><trkpt lat="45.7671819" lon="8.9710469"><ele>408.0</ele><time>2026-03-27T15:15:51.294Z</time></trkpt><trkpt lat="45.7672549" lon="8.9710595"><ele>406.5</ele><time>2026-03-27T15:15:54.273Z</time></trkpt><trkpt lat="45.767326" lon="8.9710829"><ele>405.0</ele><time>2026-03-27T15:15:57.21Z</time></trkpt><trkpt lat="45.7674079" lon="8.9711212"><ele>403.5</ele><time>2026-03-27T15:16:00.25Z</time></trkpt><trkpt lat="45.7674855" lon="8.9711475"><ele>402.0</ele><time>2026-03-27T15:16:03.21Z</time></trkpt><trkpt lat="45.7675567" lon="8.9711864"><ele>400.5</ele><time>2026-03-27T15:16:06.251Z</time></trkpt><trkpt lat="45.7676248" lon="8.9712028"><ele>399.0</ele><time>2026-03-27T15:16:09.306Z</time></trkpt><trkpt lat="45.7676974" lon="8.9711816"><ele>398.1666666666667</ele><time>2026-03-27T15:16:12.259Z</time></trkpt><trkpt lat="45.7677595" lon="8.9711544"><ele>397.33333333333337</ele><time>2026-03-27T15:16:14.208Z</time></trkpt><trkpt lat="45.7678508" lon="8.9711374"><ele>396.5</ele><time>2026-03-27T15:16:17.299Z</time></trkpt><trkpt lat="45.7679379" lon="8.9711393"><ele>395.6666666666667</ele><time>2026-03-27T15:16:20.194Z</time></trkpt><trkpt lat="45.7680202" lon="8.9711427"><ele>394.83333333333337</ele><time>2026-03-27T15:16:23.256Z</time></trkpt><trkpt lat="45.7680857" lon="8.9711621"><ele>394.0</ele><time>2026-03-27T15:16:26.235Z</time></trkpt><trkpt lat="45.7681653" lon="8.9711542"><ele>394.00000000000006</ele><time>2026-03-27T15:16:29.228Z</time></trkpt><trkpt lat="45.7682375" lon="8.9711465"><ele>394.0</ele><time>2026-03-27T15:16:33.229Z</time></trkpt><trkpt lat="45.7682969" lon="8.9712019"><ele>394.0</ele><time>2026-03-27T15:16:37.306Z</time></trkpt><trkpt lat="45.7683654" lon="8.9712424"><ele>394.0</ele><time>2026-03-27T15:16:44.229Z</time></trkpt><trkpt lat="45.7684336" lon="8.9712233"><ele>394.00000000000006</ele><time>2026-03-27T15:16:48.23Z</time></trkpt><trkpt lat="45.768521" lon="8.9712287"><ele>394.0</ele><time>2026-03-27T15:16:51.286Z</time></trkpt><trkpt lat="45.7685994" lon="8.9712228"><ele>393.6666666666667</ele><time>2026-03-27T15:16:54.213Z</time></trkpt><trkpt lat="45.7686702" lon="8.9711994"><ele>393.33333333333337</ele><time>2026-03-27T15:16:57.281Z</time></trkpt><trkpt lat="45.7687348" lon="8.9711837"><ele>393.0</ele><time>2026-03-27T15:17:00.259Z</time></trkpt><trkpt lat="45.7688353" lon="8.9711616"><ele>392.66666666666663</ele><time>2026-03-27T15:17:01.29Z</time></trkpt><trkpt lat="45.7689096" lon="8.9711498"><ele>392.3333333333333</ele><time>2026-03-27T15:17:03.23Z</time></trkpt><trkpt lat="45.7690022" lon="8.9711258"><ele>392.0</ele><time>2026-03-27T15:17:06.229Z</time></trkpt><trkpt lat="45.7690892" lon="8.9711169"><ele>391.99999999999994</ele><time>2026-03-27T15:17:09.254Z</time></trkpt><trkpt lat="45.7691651" lon="8.9710933"><ele>392.0</ele><time>2026-03-27T15:17:12.288Z</time></trkpt><trkpt lat="45.7692373" lon="8.9710634"><ele>392.0</ele><time>2026-03-27T15:17:15.225Z</time></trkpt><trkpt lat="45.7693006" lon="8.9710267"><ele>392.0</ele><time>2026-03-27T15:17:18.347Z</time></trkpt><trkpt lat="45.7693806" lon="8.9709853"><ele>391.99999999999994</ele><time>2026-03-27T15:17:21.228Z</time></trkpt><trkpt lat="45.7694592" lon="8.9709464"><ele>392.0</ele><time>2026-03-27T15:17:24.214Z</time></trkpt><trkpt lat="45.7695499" lon="8.9709249"><ele>392.16666666666663</ele><time>2026-03-27T15:17:27.295Z</time></trkpt><trkpt lat="45.7696388" lon="8.9708978"><ele>392.3333333333333</ele><time>2026-03-27T15:17:30.274Z</time></trkpt><trkpt lat="45.7697236" lon="8.9708606"><ele>392.5</ele><time>2026-03-27T15:17:33.253Z</time></trkpt><trkpt lat="45.7697881" lon="8.9708232"><ele>392.66666666666663</ele><time>2026-03-27T15:17:36.328Z</time></trkpt><trkpt lat="45.7698911" lon="8.9708024"><ele>392.8333333333333</ele><time>2026-03-27T15:17:37.35Z</time></trkpt><trkpt lat="45.7699754" lon="8.9707549"><ele>393.0</ele><time>2026-03-27T15:17:39.324Z</time></trkpt><trkpt lat="45.7700347" lon="8.9707005"><ele>393.14285714285717</ele><time>2026-03-27T15:17:42.209Z</time></trkpt><trkpt lat="45.7701064" lon="8.9706721"><ele>393.2857142857143</ele><time>2026-03-27T15:17:46.312Z</time></trkpt><trkpt lat="45.7701796" lon="8.9706217"><ele>393.42857142857144</ele><time>2026-03-27T15:17:50.322Z</time></trkpt><trkpt lat="45.7702319" lon="8.970559"><ele>393.57142857142856</ele><time>2026-03-27T15:17:53.344Z</time></trkpt><trkpt lat="45.7702879" lon="8.9705149"><ele>393.7142857142857</ele><time>2026-03-27T15:17:57.489Z</time></trkpt><trkpt lat="45.7703573" lon="8.9705048"><ele>393.8571428571429</ele><time>2026-03-27T15:18:02.653Z</time></trkpt><trkpt lat="45.7704207" lon="8.970489"><ele>394.0</ele><time>2026-03-27T15:18:06.773Z</time></trkpt><trkpt lat="45.7704899" lon="8.9704471"><ele>394.0</ele><time>2026-03-27T15:18:10.931Z</time></trkpt><trkpt lat="45.7705582" lon="8.9704047"><ele>394.0</ele><time>2026-03-27T15:18:16.115Z</time></trkpt><trkpt lat="45.7706201" lon="8.9703545"><ele>394.0</ele><time>2026-03-27T15:18:22.329Z</time></trkpt><trkpt lat="45.7706757" lon="8.9703011"><ele>394.0</ele><time>2026-03-27T15:18:27.325Z</time></trkpt><trkpt lat="45.7707356" lon="8.970255"><ele>394.0</ele><time>2026-03-27T15:18:31.293Z</time></trkpt><trkpt lat="45.7707927" lon="8.9701973"><ele>394.0</ele><time>2026-03-27T15:18:35.23Z</time></trkpt><trkpt lat="45.7708613" lon="8.9701815"><ele>394.0</ele><time>2026-03-27T15:18:39.347Z</time></trkpt><trkpt lat="45.7708759" lon="8.9700307"><ele>394.33333333333337</ele><time>2026-03-27T15:18:40.27Z</time></trkpt><trkpt lat="45.77094" lon="8.9699516"><ele>394.6666666666667</ele><time>2026-03-27T15:18:42.228Z</time></trkpt><trkpt lat="45.7710238" lon="8.9698983"><ele>395.0</ele><time>2026-03-27T15:18:45.289Z</time></trkpt><trkpt lat="45.7711214" lon="8.9698459"><ele>395.33333333333337</ele><time>2026-03-27T15:18:48.289Z</time></trkpt><trkpt lat="45.7711995" lon="8.9697959"><ele>395.6666666666667</ele><time>2026-03-27T15:18:50.237Z</time></trkpt><trkpt lat="45.771262" lon="8.9697408"><ele>396.0</ele><time>2026-03-27T15:18:52.272Z</time></trkpt><trkpt lat="45.7713388" lon="8.9696746"><ele>394.6666666666667</ele><time>2026-03-27T15:18:55.278Z</time></trkpt><trkpt lat="45.7714009" lon="8.9696312"><ele>393.33333333333337</ele><time>2026-03-27T15:18:57.34Z</time></trkpt><trkpt lat="45.7714605" lon="8.9695734"><ele>392.0</ele><time>2026-03-27T15:18:59.266Z</time></trkpt><trkpt lat="45.771516" lon="8.9695097"><ele>390.6666666666667</ele><time>2026-03-27T15:19:01.235Z</time></trkpt><trkpt lat="45.7715947" lon="8.969448"><ele>389.33333333333337</ele><time>2026-03-27T15:19:04.306Z</time></trkpt><trkpt lat="45.7716779" lon="8.9693966"><ele>388.0</ele><time>2026-03-27T15:19:07.212Z</time></trkpt><trkpt lat="45.771729" lon="8.969341"><ele>388.00000000000006</ele><time>2026-03-27T15:19:09.35Z</time></trkpt><trkpt lat="45.7717978" lon="8.9692675"><ele>388.0</ele><time>2026-03-27T15:19:12.232Z</time></trkpt><trkpt lat="45.7718836" lon="8.9692135"><ele>388.0</ele><time>2026-03-27T15:19:15.308Z</time></trkpt><trkpt lat="45.7719611" lon="8.9691671"><ele>388.0</ele><time>2026-03-27T15:19:18.304Z</time></trkpt><trkpt lat="45.7720378" lon="8.9691143"><ele>388.00000000000006</ele><time>2026-03-27T15:19:21.313Z</time></trkpt><trkpt lat="45.7721003" lon="8.9690654"><ele>388.0</ele><time>2026-03-27T15:19:24.187Z</time></trkpt><trkpt lat="45.7721735" lon="8.9690381"><ele>388.2857142857143</ele><time>2026-03-27T15:19:27.24Z</time></trkpt><trkpt lat="45.7722364" lon="8.9690262"><ele>388.5714285714286</ele><time>2026-03-27T15:19:30.206Z</time></trkpt><trkpt lat="45.7723105" lon="8.9690635"><ele>388.8571428571429</ele><time>2026-03-27T15:19:34.454Z</time></trkpt><trkpt lat="45.7723782" lon="8.969105"><ele>389.1428571428571</ele><time>2026-03-27T15:19:38.237Z</time></trkpt><trkpt lat="45.7724442" lon="8.9691098"><ele>389.42857142857144</ele><time>2026-03-27T15:19:43.229Z</time></trkpt><trkpt lat="45.7725186" lon="8.9691582"><ele>389.7142857142857</ele><time>2026-03-27T15:19:48.319Z</time></trkpt><trkpt lat="45.7725748" lon="8.9692188"><ele>390.0</ele><time>2026-03-27T15:19:51.294Z</time></trkpt><trkpt lat="45.7726355" lon="8.9692588"><ele>390.2857142857143</ele><time>2026-03-27T15:19:55.227Z</time></trkpt><trkpt lat="45.7726976" lon="8.9692917"><ele>390.57142857142856</ele><time>2026-03-27T15:19:59.316Z</time></trkpt><trkpt lat="45.772768" lon="8.9693155"><ele>390.8571428571429</ele><time>2026-03-27T15:20:04.13Z</time></trkpt><trkpt lat="45.7728263" lon="8.9693687"><ele>391.1428571428571</ele><time>2026-03-27T15:20:08.105Z</time></trkpt><trkpt lat="45.7728853" lon="8.969443"><ele>391.42857142857144</ele><time>2026-03-27T15:20:13.293Z</time></trkpt><trkpt lat="45.7729438" lon="8.9694917"><ele>391.7142857142857</ele><time>2026-03-27T15:20:17.302Z</time></trkpt><trkpt lat="45.7730041" lon="8.9695381"><ele>392.0</ele><time>2026-03-27T15:20:21.19Z</time></trkpt><trkpt lat="45.7730563" lon="8.9695915"><ele>391.99999999999994</ele><time>2026-03-27T15:20:24.29Z</time></trkpt><trkpt lat="45.7730703" lon="8.9697603"><ele>392.0</ele><time>2026-03-27T15:20:28.312Z</time></trkpt><trkpt lat="45.7731311" lon="8.9698188"><ele>392.0</ele><time>2026-03-27T15:20:30.411Z</time></trkpt><trkpt lat="45.7731996" lon="8.969878"><ele>392.0</ele><time>2026-03-27T15:20:33.534Z</time></trkpt><trkpt lat="45.7732591" lon="8.9699345"><ele>391.99999999999994</ele><time>2026-03-27T15:20:36.689Z</time></trkpt><trkpt lat="45.7733319" lon="8.9699963"><ele>392.0</ele><time>2026-03-27T15:20:39.829Z</time></trkpt><trkpt lat="45.773386" lon="8.9700506"><ele>392.57142857142856</ele><time>2026-03-27T15:20:42.291Z</time></trkpt><trkpt lat="45.7734555" lon="8.9701297"><ele>393.1428571428571</ele><time>2026-03-27T15:20:45.435Z</time></trkpt><trkpt lat="45.7735112" lon="8.9701764"><ele>393.7142857142857</ele><time>2026-03-27T15:20:47.51Z</time></trkpt><trkpt lat="45.7735706" lon="8.9702156"><ele>394.2857142857143</ele><time>2026-03-27T15:20:49.628Z</time></trkpt><trkpt lat="45.773636" lon="8.9702539"><ele>394.85714285714283</ele><time>2026-03-27T15:20:52.169Z</time></trkpt><trkpt lat="45.7737069" lon="8.9702663"><ele>395.42857142857144</ele><time>2026-03-27T15:20:55.228Z</time></trkpt><trkpt lat="45.7737627" lon="8.9702231"><ele>396.0</ele><time>2026-03-27T15:20:58.232Z</time></trkpt><trkpt lat="45.7738173" lon="8.9701728"><ele>396.0</ele><time>2026-03-27T15:21:01.294Z</time></trkpt><trkpt lat="45.7738743" lon="8.9700917"><ele>396.0</ele><time>2026-03-27T15:21:05.273Z</time></trkpt><trkpt lat="45.7739275" lon="8.970038"><ele>396.0</ele><time>2026-03-27T15:21:08.282Z</time></trkpt><trkpt lat="45.7739786" lon="8.9699506"><ele>396.0</ele><time>2026-03-27T15:21:11.236Z</time></trkpt><trkpt lat="45.774026" lon="8.969844"><ele>396.0</ele><time>2026-03-27T15:21:14.239Z</time></trkpt><trkpt lat="45.7740806" lon="8.9697382"><ele>396.0</ele><time>2026-03-27T15:21:17.228Z</time></trkpt><trkpt lat="45.774132" lon="8.969639"><ele>395.1666666666667</ele><time>2026-03-27T15:21:20.274Z</time></trkpt><trkpt lat="45.7741723" lon="8.969549"><ele>394.33333333333337</ele><time>2026-03-27T15:21:23.289Z</time></trkpt><trkpt lat="45.7742159" lon="8.9694567"><ele>393.5</ele><time>2026-03-27T15:21:26.268Z</time></trkpt><trkpt lat="45.7742617" lon="8.9693745"><ele>392.6666666666667</ele><time>2026-03-27T15:21:29.247Z</time></trkpt><trkpt lat="45.7743183" lon="8.9692899"><ele>391.83333333333337</ele><time>2026-03-27T15:21:33.256Z</time></trkpt><trkpt lat="45.7743765" lon="8.9692103"><ele>391.0</ele><time>2026-03-27T15:21:36.246Z</time></trkpt><trkpt lat="45.774433" lon="8.9691354"><ele>390.6666666666667</ele><time>2026-03-27T15:21:39.392Z</time></trkpt><trkpt lat="45.7744965" lon="8.9690699"><ele>390.33333333333337</ele><time>2026-03-27T15:21:42.532Z</time></trkpt><trkpt lat="45.7745565" lon="8.968993"><ele>390.0</ele><time>2026-03-27T15:21:45.693Z</time></trkpt><trkpt lat="45.7746307" lon="8.9689189"><ele>389.66666666666663</ele><time>2026-03-27T15:21:48.83Z</time></trkpt><trkpt lat="45.7746971" lon="8.968844"><ele>389.3333333333333</ele><time>2026-03-27T15:21:51.932Z</time></trkpt><trkpt lat="45.7747655" lon="8.9687814"><ele>389.0</ele><time>2026-03-27T15:21:55.169Z</time></trkpt><trkpt lat="45.7748189" lon="8.9687289"><ele>389.0</ele><time>2026-03-27T15:21:57.211Z</time></trkpt><trkpt lat="45.7748695" lon="8.9686652"><ele>389.0</ele><time>2026-03-27T15:21:59.287Z</time></trkpt><trkpt lat="45.774918" lon="8.9686059"><ele>389.0</ele><time>2026-03-27T15:22:01.311Z</time></trkpt><trkpt lat="45.7749823" lon="8.9685311"><ele>389.0</ele><time>2026-03-27T15:22:04.013Z</time></trkpt><trkpt lat="45.7750434" lon="8.9684521"><ele>389.0</ele><time>2026-03-27T15:22:07.281Z</time></trkpt><trkpt lat="45.7750924" lon="8.9683846"><ele>389.0</ele><time>2026-03-27T15:22:10.19Z</time></trkpt><trkpt lat="45.775148" lon="8.9683205"><ele>389.0</ele><time>2026-03-27T15:22:13.254Z</time></trkpt><trkpt lat="45.7752184" lon="8.9682697"><ele>389.14285714285717</ele><time>2026-03-27T15:22:17.247Z</time></trkpt><trkpt lat="45.7752926" lon="8.9682168"><ele>389.2857142857143</ele><time>2026-03-27T15:22:21.258Z</time></trkpt><trkpt lat="45.7753584" lon="8.9681789"><ele>389.42857142857144</ele><time>2026-03-27T15:22:24.236Z</time></trkpt><trkpt lat="45.7754227" lon="8.9681502"><ele>389.57142857142856</ele><time>2026-03-27T15:22:27.229Z</time></trkpt><trkpt lat="45.7754804" lon="8.9681082"><ele>389.71428571428567</ele><time>2026-03-27T15:22:30.271Z</time></trkpt><trkpt lat="45.7755507" lon="8.9680382"><ele>389.85714285714283</ele><time>2026-03-27T15:22:34.317Z</time></trkpt><trkpt lat="45.7755979" lon="8.9679588"><ele>390.0</ele><time>2026-03-27T15:22:37.296Z</time></trkpt><trkpt lat="45.7756566" lon="8.9678925"><ele>390.0</ele><time>2026-03-27T15:22:40.31Z</time></trkpt><trkpt lat="45.7757192" lon="8.9678273"><ele>390.0</ele><time>2026-03-27T15:22:43.394Z</time></trkpt><trkpt lat="45.7757821" lon="8.9677698"><ele>390.0</ele><time>2026-03-27T15:22:46.51Z</time></trkpt><trkpt lat="45.7758459" lon="8.9677133"><ele>390.0</ele><time>2026-03-27T15:22:49.595Z</time></trkpt><trkpt lat="45.7759033" lon="8.9676706"><ele>390.0</ele><time>2026-03-27T15:22:52.73Z</time></trkpt><trkpt lat="45.7759747" lon="8.9676171"><ele>390.0</ele><time>2026-03-27T15:22:56.869Z</time></trkpt><trkpt lat="45.7760512" lon="8.9675912"><ele>390.57142857142856</ele><time>2026-03-27T15:23:02.014Z</time></trkpt><trkpt lat="45.7761279" lon="8.9675493"><ele>391.1428571428571</ele><time>2026-03-27T15:23:06.152Z</time></trkpt><trkpt lat="45.7761886" lon="8.9674948"><ele>391.7142857142857</ele><time>2026-03-27T15:23:09.247Z</time></trkpt><trkpt lat="45.7762459" lon="8.9674293"><ele>392.2857142857143</ele><time>2026-03-27T15:23:12.31Z</time></trkpt><trkpt lat="45.7762943" lon="8.9673675"><ele>392.8571428571429</ele><time>2026-03-27T15:23:15.329Z</time></trkpt><trkpt lat="45.7763735" lon="8.9673216"><ele>393.42857142857144</ele><time>2026-03-27T15:23:19.212Z</time></trkpt><trkpt lat="45.7764379" lon="8.9672879"><ele>394.0</ele><time>2026-03-27T15:23:22.328Z</time></trkpt><trkpt lat="45.7765077" lon="8.9672526"><ele>394.00000000000006</ele><time>2026-03-27T15:23:25.296Z</time></trkpt><trkpt lat="45.7765772" lon="8.9671826"><ele>394.0</ele><time>2026-03-27T15:23:28.191Z</time></trkpt><trkpt lat="45.7766455" lon="8.9671202"><ele>394.0</ele><time>2026-03-27T15:23:31.331Z</time></trkpt><trkpt lat="45.7767149" lon="8.9670526"><ele>394.0</ele><time>2026-03-27T15:23:35.262Z</time></trkpt><trkpt lat="45.7767663" lon="8.9669643"><ele>394.00000000000006</ele><time>2026-03-27T15:23:39.274Z</time></trkpt><trkpt lat="45.7767809" lon="8.9668554"><ele>394.0</ele><time>2026-03-27T15:23:43.35Z</time></trkpt><trkpt lat="45.7767905" lon="8.9667615"><ele>394.00000000000006</ele><time>2026-03-27T15:23:47.291Z</time></trkpt><trkpt lat="45.77681" lon="8.9666558"><ele>394.0</ele><time>2026-03-27T15:23:51.272Z</time></trkpt><trkpt lat="45.7767737" lon="8.9665741"><ele>394.0</ele><time>2026-03-27T15:23:58.289Z</time></trkpt><trkpt lat="45.7768696" lon="8.9665258"><ele>394.0</ele><time>2026-03-27T15:24:02.271Z</time></trkpt><trkpt lat="45.7769327" lon="8.9664432"><ele>394.00000000000006</ele><time>2026-03-27T15:24:06.328Z</time></trkpt><trkpt lat="45.7769443" lon="8.9663379"><ele>394.0</ele><time>2026-03-27T15:24:10.228Z</time></trkpt><trkpt lat="45.776964" lon="8.9662445"><ele>394.14285714285717</ele><time>2026-03-27T15:24:14.327Z</time></trkpt><trkpt lat="45.7769504" lon="8.9661546"><ele>394.28571428571433</ele><time>2026-03-27T15:24:17.232Z</time></trkpt><trkpt lat="45.7769345" lon="8.966047"><ele>394.42857142857144</ele><time>2026-03-27T15:24:20.314Z</time></trkpt><trkpt lat="45.7769058" lon="8.9659639"><ele>394.57142857142856</ele><time>2026-03-27T15:24:23.262Z</time></trkpt><trkpt lat="45.7768873" lon="8.9658574"><ele>394.7142857142857</ele><time>2026-03-27T15:24:27.27Z</time></trkpt><trkpt lat="45.7768608" lon="8.965755"><ele>394.85714285714283</ele><time>2026-03-27T15:24:31.281Z</time></trkpt><trkpt lat="45.776814" lon="8.965672"><ele>395.0</ele><time>2026-03-27T15:24:36.268Z</time></trkpt><trkpt lat="45.7768002" lon="8.9655722"><ele>395.0</ele><time>2026-03-27T15:24:41.248Z</time></trkpt><trkpt lat="45.776823" lon="8.9654844"><ele>395.0</ele><time>2026-03-27T15:24:45.254Z</time></trkpt><trkpt lat="45.77683" lon="8.9653859"><ele>395.0</ele><time>2026-03-27T15:24:48.328Z</time></trkpt><trkpt lat="45.7768233" lon="8.9652748"><ele>395.0</ele><time>2026-03-27T15:24:51.329Z</time></trkpt><trkpt lat="45.7768063" lon="8.9651706"><ele>395.0</ele><time>2026-03-27T15:24:54.166Z</time></trkpt><trkpt lat="45.7767706" lon="8.9650659"><ele>395.0</ele><time>2026-03-27T15:24:57.273Z</time></trkpt><trkpt lat="45.7767323" lon="8.9649738"><ele>395.0</ele><time>2026-03-27T15:25:00.327Z</time></trkpt><trkpt lat="45.7766946" lon="8.964891"><ele>394.85714285714283</ele><time>2026-03-27T15:25:03.242Z</time></trkpt><trkpt lat="45.7766667" lon="8.9648048"><ele>394.7142857142857</ele><time>2026-03-27T15:25:06.336Z</time></trkpt><trkpt lat="45.7766501" lon="8.9647168"><ele>394.57142857142856</ele><time>2026-03-27T15:25:09.211Z</time></trkpt><trkpt lat="45.7766308" lon="8.9646291"><ele>394.42857142857144</ele><time>2026-03-27T15:25:12.308Z</time></trkpt><trkpt lat="45.776586" lon="8.9645371"><ele>394.28571428571433</ele><time>2026-03-27T15:25:15.271Z</time></trkpt><trkpt lat="45.7765537" lon="8.9644423"><ele>394.14285714285717</ele><time>2026-03-27T15:25:19.273Z</time></trkpt><trkpt lat="45.7765356" lon="8.9643489"><ele>394.0</ele><time>2026-03-27T15:25:22.347Z</time></trkpt><trkpt lat="45.7765164" lon="8.9642564"><ele>393.42857142857144</ele><time>2026-03-27T15:25:25.352Z</time></trkpt><trkpt lat="45.7764869" lon="8.9641511"><ele>392.8571428571429</ele><time>2026-03-27T15:25:28.213Z</time></trkpt><trkpt lat="45.7764432" lon="8.9640706"><ele>392.2857142857143</ele><time>2026-03-27T15:25:31.306Z</time></trkpt><trkpt lat="45.7764398" lon="8.9639799"><ele>391.7142857142857</ele><time>2026-03-27T15:25:35.319Z</time></trkpt><trkpt lat="45.7764339" lon="8.9638847"><ele>391.1428571428571</ele><time>2026-03-27T15:25:38.297Z</time></trkpt><trkpt lat="45.7764482" lon="8.9637823"><ele>390.57142857142856</ele><time>2026-03-27T15:25:42.171Z</time></trkpt><trkpt lat="45.7764123" lon="8.963681"><ele>390.0</ele><time>2026-03-27T15:25:47.269Z</time></trkpt><trkpt lat="45.7763526" lon="8.9636496"><ele>390.0</ele><time>2026-03-27T15:25:50.332Z</time></trkpt><trkpt lat="45.776301" lon="8.9635943"><ele>390.0</ele><time>2026-03-27T15:25:53.304Z</time></trkpt><trkpt lat="45.7762466" lon="8.9635145"><ele>390.0</ele><time>2026-03-27T15:25:57.314Z</time></trkpt><trkpt lat="45.7761725" lon="8.9634694"><ele>390.0</ele><time>2026-03-27T15:26:01.206Z</time></trkpt><trkpt lat="45.7761023" lon="8.9634817"><ele>390.0</ele><time>2026-03-27T15:26:05.33Z</time></trkpt><trkpt lat="45.7760369" lon="8.9634855"><ele>390.0</ele><time>2026-03-27T15:26:09.228Z</time></trkpt><trkpt lat="45.7759573" lon="8.9634668"><ele>390.0</ele><time>2026-03-27T15:26:14.19Z</time></trkpt><trkpt lat="45.7758934" lon="8.963486"><ele>390.0</ele><time>2026-03-27T15:26:17.254Z</time></trkpt><trkpt lat="45.7758147" lon="8.9634851"><ele>390.0</ele><time>2026-03-27T15:26:20.309Z</time></trkpt><trkpt lat="45.7757486" lon="8.9634477"><ele>390.0</ele><time>2026-03-27T15:26:23.425Z</time></trkpt><trkpt lat="45.775683" lon="8.9633945"><ele>390.0</ele><time>2026-03-27T15:26:26.648Z</time></trkpt><trkpt lat="45.7756278" lon="8.963346"><ele>390.0</ele><time>2026-03-27T15:26:31.339Z</time></trkpt><trkpt lat="45.7755066" lon="8.9633013"><ele>390.0</ele><time>2026-03-27T15:26:43.068Z</time></trkpt><trkpt lat="45.7754448" lon="8.9632602"><ele>390.0</ele><time>2026-03-27T15:26:46.234Z</time></trkpt><trkpt lat="45.7753807" lon="8.9632329"><ele>390.0</ele><time>2026-03-27T15:26:49.291Z</time></trkpt><trkpt lat="45.7753188" lon="8.9631881"><ele>390.0</ele><time>2026-03-27T15:26:52.306Z</time></trkpt><trkpt lat="45.7752539" lon="8.9631798"><ele>390.0</ele><time>2026-03-27T15:26:57.347Z</time></trkpt><trkpt lat="45.7752264" lon="8.9630658"><ele>390.0</ele><time>2026-03-27T15:26:59.18Z</time></trkpt><trkpt lat="45.7751841" lon="8.9629845"><ele>390.0</ele><time>2026-03-27T15:27:02.273Z</time></trkpt><trkpt lat="45.7751205" lon="8.962945"><ele>390.0</ele><time>2026-03-27T15:27:07.249Z</time></trkpt><trkpt lat="45.7750554" lon="8.9629139"><ele>390.1428571428571</ele><time>2026-03-27T15:27:15.334Z</time></trkpt><trkpt lat="45.7749908" lon="8.9629159"><ele>390.2857142857143</ele><time>2026-03-27T15:27:23.239Z</time></trkpt><trkpt lat="45.7749272" lon="8.9629454"><ele>390.42857142857144</ele><time>2026-03-27T15:27:31.313Z</time></trkpt><trkpt lat="45.7748368" lon="8.9629574"><ele>390.57142857142856</ele><time>2026-03-27T15:27:38.248Z</time></trkpt><trkpt lat="45.7747679" lon="8.9629874"><ele>390.7142857142857</ele><time>2026-03-27T15:27:44.35Z</time></trkpt><trkpt lat="45.7747122" lon="8.9630533"><ele>390.85714285714283</ele><time>2026-03-27T15:27:50.826Z</time></trkpt><trkpt lat="45.7746461" lon="8.9630919"><ele>391.0</ele><time>2026-03-27T15:27:55.071Z</time></trkpt><trkpt lat="45.7745795" lon="8.9631321"><ele>390.99999999999994</ele><time>2026-03-27T15:28:00.244Z</time></trkpt><trkpt lat="45.7745073" lon="8.9631686"><ele>391.0</ele><time>2026-03-27T15:28:07.33Z</time></trkpt><trkpt lat="45.7744438" lon="8.9632132"><ele>391.0</ele><time>2026-03-27T15:28:12.273Z</time></trkpt><trkpt lat="45.7743813" lon="8.9632409"><ele>391.0</ele><time>2026-03-27T15:28:18.345Z</time></trkpt><trkpt lat="45.7743111" lon="8.9632876"><ele>391.0</ele><time>2026-03-27T15:28:23.211Z</time></trkpt><trkpt lat="45.7742469" lon="8.9633149"><ele>390.99999999999994</ele><time>2026-03-27T15:28:26.25Z</time></trkpt><trkpt lat="45.7741814" lon="8.9633305"><ele>391.0</ele><time>2026-03-27T15:28:29.249Z</time></trkpt><trkpt lat="45.7741036" lon="8.9633321"><ele>391.33333333333337</ele><time>2026-03-27T15:28:32.321Z</time></trkpt><trkpt lat="45.7740442" lon="8.9633662"><ele>391.6666666666667</ele><time>2026-03-27T15:28:37.249Z</time></trkpt><trkpt lat="45.7739858" lon="8.9634395"><ele>392.0</ele><time>2026-03-27T15:28:41.246Z</time></trkpt><trkpt lat="45.7739406" lon="8.9635063"><ele>392.33333333333337</ele><time>2026-03-27T15:28:45.252Z</time></trkpt><trkpt lat="45.7738651" lon="8.9635779"><ele>392.6666666666667</ele><time>2026-03-27T15:28:49.346Z</time></trkpt><trkpt lat="45.773801" lon="8.9636493"><ele>393.0</ele><time>2026-03-27T15:28:53.333Z</time></trkpt><trkpt lat="45.7737384" lon="8.9637112"><ele>393.0</ele><time>2026-03-27T15:28:57.486Z</time></trkpt><trkpt lat="45.7736781" lon="8.9637726"><ele>393.0</ele><time>2026-03-27T15:29:00.646Z</time></trkpt><trkpt lat="45.7736169" lon="8.9638353"><ele>393.0</ele><time>2026-03-27T15:29:04.766Z</time></trkpt><trkpt lat="45.7735528" lon="8.963953"><ele>393.0</ele><time>2026-03-27T15:29:10.006Z</time></trkpt><trkpt lat="45.7735416" lon="8.9640448"><ele>393.0</ele><time>2026-03-27T15:29:13.186Z</time></trkpt><trkpt lat="45.7734608" lon="8.9641135"><ele>393.0</ele><time>2026-03-27T15:29:14.246Z</time></trkpt><trkpt lat="45.7734058" lon="8.9641782"><ele>393.3333333333333</ele><time>2026-03-27T15:29:16.316Z</time></trkpt><trkpt lat="45.7733373" lon="8.9642408"><ele>393.66666666666663</ele><time>2026-03-27T15:29:19.269Z</time></trkpt><trkpt lat="45.7732788" lon="8.9643064"><ele>394.0</ele><time>2026-03-27T15:29:22.273Z</time></trkpt><trkpt lat="45.7732095" lon="8.9643719"><ele>394.3333333333333</ele><time>2026-03-27T15:29:25.252Z</time></trkpt><trkpt lat="45.7731323" lon="8.9644088"><ele>394.66666666666663</ele><time>2026-03-27T15:29:28.231Z</time></trkpt><trkpt lat="45.7730604" lon="8.9644429"><ele>395.0</ele><time>2026-03-27T15:29:31.227Z</time></trkpt><trkpt lat="45.7729943" lon="8.9644705"><ele>395.0</ele><time>2026-03-27T15:29:34.285Z</time></trkpt><trkpt lat="45.7729306" lon="8.9644982"><ele>395.0</ele><time>2026-03-27T15:29:38.312Z</time></trkpt><trkpt lat="45.772857" lon="8.9645338"><ele>395.0</ele><time>2026-03-27T15:29:42.333Z</time></trkpt><trkpt lat="45.7727929" lon="8.9645608"><ele>395.0</ele><time>2026-03-27T15:29:47.249Z</time></trkpt><trkpt lat="45.7727277" lon="8.9646003"><ele>395.0</ele><time>2026-03-27T15:29:51.245Z</time></trkpt><trkpt lat="45.7726655" lon="8.96465"><ele>395.0</ele><time>2026-03-27T15:29:56.253Z</time></trkpt><trkpt lat="45.7725906" lon="8.9647031"><ele>395.0</ele><time>2026-03-27T15:30:01.27Z</time></trkpt><trkpt lat="45.7725301" lon="8.9647396"><ele>395.2857142857143</ele><time>2026-03-27T15:30:04.229Z</time></trkpt><trkpt lat="45.7724636" lon="8.9647701"><ele>395.5714285714286</ele><time>2026-03-27T15:30:07.298Z</time></trkpt><trkpt lat="45.7724101" lon="8.9648217"><ele>395.8571428571429</ele><time>2026-03-27T15:30:10.276Z</time></trkpt><trkpt lat="45.7723557" lon="8.9648764"><ele>396.1428571428571</ele><time>2026-03-27T15:30:13.166Z</time></trkpt><trkpt lat="45.7722921" lon="8.964917"><ele>396.42857142857144</ele><time>2026-03-27T15:30:16.249Z</time></trkpt><trkpt lat="45.7722203" lon="8.9650171"><ele>396.7142857142857</ele><time>2026-03-27T15:30:18.296Z</time></trkpt><trkpt lat="45.7721648" lon="8.9650796"><ele>397.0</ele><time>2026-03-27T15:30:21.233Z</time></trkpt><trkpt lat="45.7720796" lon="8.9651569"><ele>396.8</ele><time>2026-03-27T15:30:24.254Z</time></trkpt><trkpt lat="45.7720124" lon="8.965222"><ele>396.6</ele><time>2026-03-27T15:30:26.27Z</time></trkpt><trkpt lat="45.7718924" lon="8.9653155"><ele>396.40000000000003</ele><time>2026-03-27T15:30:30.326Z</time></trkpt><trkpt lat="45.7718259" lon="8.9653281"><ele>396.20000000000005</ele><time>2026-03-27T15:30:33.305Z</time></trkpt><trkpt lat="45.7717544" lon="8.9653979"><ele>396.0</ele><time>2026-03-27T15:30:34.228Z</time></trkpt><trkpt lat="45.7716918" lon="8.9654787"><ele>396.0</ele><time>2026-03-27T15:30:37.315Z</time></trkpt><trkpt lat="45.7716018" lon="8.9656173"><ele>396.0</ele><time>2026-03-27T15:30:41.228Z</time></trkpt><trkpt lat="45.7715258" lon="8.965663"><ele>396.0</ele><time>2026-03-27T15:30:45.227Z</time></trkpt><trkpt lat="45.77144" lon="8.9655963"><ele>396.0</ele><time>2026-03-27T15:30:53.241Z</time></trkpt><trkpt lat="45.7713862" lon="8.9656454"><ele>396.0</ele><time>2026-03-27T15:30:57.251Z</time></trkpt><trkpt lat="45.771331" lon="8.96569"><ele>396.0</ele><time>2026-03-27T15:31:01.187Z</time></trkpt><trkpt lat="45.7712747" lon="8.9657371"><ele>396.0</ele><time>2026-03-27T15:31:05.253Z</time></trkpt><trkpt lat="45.7712152" lon="8.9657904"><ele>396.0</ele><time>2026-03-27T15:31:11.228Z</time></trkpt><trkpt lat="45.7711436" lon="8.9658431"><ele>396.0</ele><time>2026-03-27T15:31:17.254Z</time></trkpt><trkpt lat="45.7710832" lon="8.9658958"><ele>396.0</ele><time>2026-03-27T15:31:23.192Z</time></trkpt><trkpt lat="45.7710548" lon="8.9659824"><ele>396.0</ele><time>2026-03-27T15:31:27.267Z</time></trkpt><trkpt lat="45.7709529" lon="8.9660397"><ele>396.0</ele><time>2026-03-27T15:31:29.293Z</time></trkpt><trkpt lat="45.7708872" lon="8.9660558"><ele>396.3333333333333</ele><time>2026-03-27T15:31:32.308Z</time></trkpt><trkpt lat="45.7708631" lon="8.9661606"><ele>396.66666666666663</ele><time>2026-03-27T15:31:38.252Z</time></trkpt><trkpt lat="45.7708159" lon="8.9662431"><ele>397.0</ele><time>2026-03-27T15:31:43.614Z</time></trkpt><trkpt lat="45.7707662" lon="8.9663005"><ele>397.3333333333333</ele><time>2026-03-27T15:31:47.27Z</time></trkpt><trkpt lat="45.7707002" lon="8.9663484"><ele>397.66666666666663</ele><time>2026-03-27T15:31:51.328Z</time></trkpt><trkpt lat="45.7706254" lon="8.966404"><ele>398.0</ele><time>2026-03-27T15:31:55.228Z</time></trkpt><trkpt lat="45.7705608" lon="8.966467"><ele>398.0</ele><time>2026-03-27T15:31:59.231Z</time></trkpt><trkpt lat="45.7705056" lon="8.9665177"><ele>398.0</ele><time>2026-03-27T15:32:02.324Z</time></trkpt><trkpt lat="45.7704323" lon="8.9665703"><ele>398.0</ele><time>2026-03-27T15:32:06.45Z</time></trkpt><trkpt lat="45.7703135" lon="8.9667621"><ele>398.0</ele><time>2026-03-27T15:32:15.27Z</time></trkpt><trkpt lat="45.7701871" lon="8.9668467"><ele>398.4</ele><time>2026-03-27T15:32:20.986Z</time></trkpt><trkpt lat="45.7701264" lon="8.9668972"><ele>398.79999999999995</ele><time>2026-03-27T15:32:23.29Z</time></trkpt><trkpt lat="45.7699967" lon="8.9669533"><ele>399.2</ele><time>2026-03-27T15:32:30.229Z</time></trkpt><trkpt lat="45.7699334" lon="8.966949"><ele>399.6</ele><time>2026-03-27T15:32:37.287Z</time></trkpt><trkpt lat="45.7697829" lon="8.9669487"><ele>400.0</ele><time>2026-03-27T15:32:40.485Z</time></trkpt><trkpt lat="45.7696265" lon="8.9669407"><ele>400.0</ele><time>2026-03-27T15:32:48.271Z</time></trkpt><trkpt lat="45.7695588" lon="8.9669475"><ele>400.0</ele><time>2026-03-27T15:32:53.651Z</time></trkpt><trkpt lat="45.7694259" lon="8.9670625"><ele>400.0</ele><time>2026-03-27T15:32:56.892Z</time></trkpt><trkpt lat="45.7693609" lon="8.9670669"><ele>400.0</ele><time>2026-03-27T15:33:00.128Z</time></trkpt><trkpt lat="45.7692377" lon="8.967101"><ele>400.0</ele><time>2026-03-27T15:33:03.273Z</time></trkpt><trkpt lat="45.7691604" lon="8.9670899"><ele>399.8571428571429</ele><time>2026-03-27T15:33:05.313Z</time></trkpt><trkpt lat="45.769067" lon="8.9670855"><ele>399.7142857142857</ele><time>2026-03-27T15:33:08.314Z</time></trkpt><trkpt lat="45.7689998" lon="8.9670642"><ele>399.57142857142856</ele><time>2026-03-27T15:33:10.325Z</time></trkpt><trkpt lat="45.7689365" lon="8.9670572"><ele>399.42857142857144</ele><time>2026-03-27T15:33:12.323Z</time></trkpt><trkpt lat="45.7688424" lon="8.9670401"><ele>399.2857142857143</ele><time>2026-03-27T15:33:15.308Z</time></trkpt><trkpt lat="45.76878" lon="8.9670178"><ele>399.14285714285717</ele><time>2026-03-27T15:33:17.25Z</time></trkpt><trkpt lat="45.7687161" lon="8.967008"><ele>399.0</ele><time>2026-03-27T15:33:19.347Z</time></trkpt><trkpt lat="45.7686447" lon="8.9670059"><ele>399.0</ele><time>2026-03-27T15:33:21.486Z</time></trkpt><trkpt lat="45.7685522" lon="8.9669884"><ele>399.0</ele><time>2026-03-27T15:33:24.632Z</time></trkpt><trkpt lat="45.7684567" lon="8.9669712"><ele>399.0</ele><time>2026-03-27T15:33:27.848Z</time></trkpt><trkpt lat="45.7683848" lon="8.9669337"><ele>399.0</ele><time>2026-03-27T15:33:29.973Z</time></trkpt><trkpt lat="45.7683249" lon="8.9668955"><ele>399.0</ele><time>2026-03-27T15:33:32.092Z</time></trkpt><trkpt lat="45.768258" lon="8.9668908"><ele>399.0</ele><time>2026-03-27T15:33:34.231Z</time></trkpt><trkpt lat="45.7681774" lon="8.9669026"><ele>398.0</ele><time>2026-03-27T15:33:37.298Z</time></trkpt><trkpt lat="45.7681096" lon="8.9668769"><ele>397.0</ele><time>2026-03-27T15:33:40.277Z</time></trkpt><trkpt lat="45.7680436" lon="8.9668604"><ele>396.0</ele><time>2026-03-27T15:33:44.287Z</time></trkpt><trkpt lat="45.7679625" lon="8.9668509"><ele>395.0</ele><time>2026-03-27T15:33:48.312Z</time></trkpt><trkpt lat="45.7678813" lon="8.9668371"><ele>394.0</ele><time>2026-03-27T15:33:52.495Z</time></trkpt><trkpt lat="45.7678145" lon="8.9668343"><ele>393.0</ele><time>2026-03-27T15:33:56.669Z</time></trkpt><trkpt lat="45.7677605" lon="8.9667808"><ele>392.0</ele><time>2026-03-27T15:34:01.894Z</time></trkpt><trkpt lat="45.7677109" lon="8.9667189"><ele>392.40000000000003</ele><time>2026-03-27T15:34:07.23Z</time></trkpt><trkpt lat="45.7675692" lon="8.96671"><ele>392.8</ele><time>2026-03-27T15:34:14.329Z</time></trkpt><trkpt lat="45.7674994" lon="8.9667025"><ele>393.2</ele><time>2026-03-27T15:34:19.229Z</time></trkpt><trkpt lat="45.7673727" lon="8.9667177"><ele>393.6</ele><time>2026-03-27T15:34:24.51Z</time></trkpt><trkpt lat="45.7673035" lon="8.9667126"><ele>394.0</ele><time>2026-03-27T15:34:31.258Z</time></trkpt><trkpt lat="45.7671659" lon="8.9666474"><ele>394.33333333333337</ele><time>2026-03-27T15:34:41.011Z</time></trkpt><trkpt lat="45.7671058" lon="8.966593"><ele>394.6666666666667</ele><time>2026-03-27T15:34:46.266Z</time></trkpt><trkpt lat="45.767029" lon="8.9664653"><ele>395.0</ele><time>2026-03-27T15:34:52.228Z</time></trkpt><trkpt lat="45.7669853" lon="8.966397"><ele>395.33333333333337</ele><time>2026-03-27T15:34:55.209Z</time></trkpt><trkpt lat="45.7669053" lon="8.9662828"><ele>395.6666666666667</ele><time>2026-03-27T15:35:02.305Z</time></trkpt><trkpt lat="45.7668704" lon="8.9662026"><ele>396.0</ele><time>2026-03-27T15:35:07.231Z</time></trkpt><trkpt lat="45.7667957" lon="8.9660883"><ele>396.6</ele><time>2026-03-27T15:35:10.35Z</time></trkpt><trkpt lat="45.766742" lon="8.9660078"><ele>397.20000000000005</ele><time>2026-03-27T15:35:14.678Z</time></trkpt><trkpt lat="45.7666546" lon="8.9658903"><ele>397.79999999999995</ele><time>2026-03-27T15:35:20.291Z</time></trkpt><trkpt lat="45.7666049" lon="8.9658303"><ele>398.4</ele><time>2026-03-27T15:35:22.312Z</time></trkpt><trkpt lat="45.7664787" lon="8.9657089"><ele>399.0</ele><time>2026-03-27T15:35:29.227Z</time></trkpt><trkpt lat="45.7664224" lon="8.9656649"><ele>399.6</ele><time>2026-03-27T15:35:32.32Z</time></trkpt><trkpt lat="45.7662969" lon="8.9655924"><ele>400.2</ele><time>2026-03-27T15:35:36.408Z</time></trkpt><trkpt lat="45.7661854" lon="8.9655557"><ele>400.8</ele><time>2026-03-27T15:35:41.731Z</time></trkpt><trkpt lat="45.7661018" lon="8.9655124"><ele>401.40000000000003</ele><time>2026-03-27T15:35:43.85Z</time></trkpt><trkpt lat="45.7660239" lon="8.9654528"><ele>402.0</ele><time>2026-03-27T15:35:47.228Z</time></trkpt><trkpt lat="45.7659527" lon="8.9654227"><ele>402.0</ele><time>2026-03-27T15:35:51.228Z</time></trkpt><trkpt lat="45.7658987" lon="8.965375"><ele>402.0</ele><time>2026-03-27T15:35:55.349Z</time></trkpt><trkpt lat="45.7658077" lon="8.9654372"><ele>402.0</ele><time>2026-03-27T15:36:00.274Z</time></trkpt><trkpt lat="45.7657426" lon="8.9654683"><ele>402.0</ele><time>2026-03-27T15:36:04.214Z</time></trkpt><trkpt lat="45.7656795" lon="8.9654769"><ele>402.0</ele><time>2026-03-27T15:36:10.19Z</time></trkpt><trkpt lat="45.7655805" lon="8.9654027"><ele>402.0</ele><time>2026-03-27T15:36:14.372Z</time></trkpt><trkpt lat="45.7655298" lon="8.965341"><ele>402.0</ele><time>2026-03-27T15:36:17.23Z</time></trkpt><trkpt lat="45.7654458" lon="8.9652292"><ele>402.0</ele><time>2026-03-27T15:36:24.332Z</time></trkpt><trkpt lat="45.7653784" lon="8.9651695"><ele>402.0</ele><time>2026-03-27T15:36:27.332Z</time></trkpt><trkpt lat="45.765325" lon="8.9651107"><ele>402.0</ele><time>2026-03-27T15:36:35.767Z</time></trkpt><trkpt lat="45.7652865" lon="8.9649191"><ele>402.0</ele><time>2026-03-27T15:36:42.229Z</time></trkpt><trkpt lat="45.7652781" lon="8.964821"><ele>402.1666666666667</ele><time>2026-03-27T15:36:47.27Z</time></trkpt><trkpt lat="45.7652318" lon="8.9646592"><ele>402.33333333333337</ele><time>2026-03-27T15:36:52.287Z</time></trkpt><trkpt lat="45.7651945" lon="8.964564"><ele>402.5</ele><time>2026-03-27T15:36:55.264Z</time></trkpt><trkpt lat="45.7651582" lon="8.9644765"><ele>402.6666666666667</ele><time>2026-03-27T15:36:58.35Z</time></trkpt><trkpt lat="45.7651039" lon="8.9643938"><ele>402.83333333333337</ele><time>2026-03-27T15:37:01.209Z</time></trkpt><trkpt lat="45.7650582" lon="8.9643313"><ele>403.0</ele><time>2026-03-27T15:37:03.284Z</time></trkpt><trkpt lat="45.7649923" lon="8.9641758"><ele>404.6666666666667</ele><time>2026-03-27T15:37:06.327Z</time></trkpt><trkpt lat="45.7649529" lon="8.9640603"><ele>406.33333333333337</ele><time>2026-03-27T15:37:08.228Z</time></trkpt><trkpt lat="45.764886" lon="8.9639817"><ele>408.0</ele><time>2026-03-27T15:37:11.303Z</time></trkpt><trkpt lat="45.7648373" lon="8.9639196"><ele>409.66666666666663</ele><time>2026-03-27T15:37:14.227Z</time></trkpt><trkpt lat="45.7647671" lon="8.9638535"><ele>411.3333333333333</ele><time>2026-03-27T15:37:18.292Z</time></trkpt><trkpt lat="45.7646942" lon="8.9638452"><ele>413.0</ele><time>2026-03-27T15:37:22.301Z</time></trkpt><trkpt lat="45.7646168" lon="8.9638902"><ele>413.0</ele><time>2026-03-27T15:37:27.334Z</time></trkpt><trkpt lat="45.7645513" lon="8.9639299"><ele>413.0</ele><time>2026-03-27T15:37:31.237Z</time></trkpt><trkpt lat="45.7644946" lon="8.9639874"><ele>413.0</ele><time>2026-03-27T15:37:35.247Z</time></trkpt><trkpt lat="45.7644315" lon="8.9640525"><ele>413.0</ele><time>2026-03-27T15:37:40.251Z</time></trkpt><trkpt lat="45.7643697" lon="8.9640908"><ele>413.0</ele><time>2026-03-27T15:37:44.297Z</time></trkpt><trkpt lat="45.7643093" lon="8.9641184"><ele>413.0</ele><time>2026-03-27T15:37:48.307Z</time></trkpt><trkpt lat="45.7642494" lon="8.9641512"><ele>413.0</ele><time>2026-03-27T15:37:52.317Z</time></trkpt><trkpt lat="45.7641867" lon="8.9641906"><ele>412.66666666666663</ele><time>2026-03-27T15:37:55.207Z</time></trkpt><trkpt lat="45.7641205" lon="8.9642077"><ele>412.3333333333333</ele><time>2026-03-27T15:37:58.314Z</time></trkpt><trkpt lat="45.7640438" lon="8.9642009"><ele>412.0</ele><time>2026-03-27T15:38:02.284Z</time></trkpt><trkpt lat="45.7639567" lon="8.9641859"><ele>411.66666666666663</ele><time>2026-03-27T15:38:08.241Z</time></trkpt><trkpt lat="45.7638872" lon="8.9641788"><ele>411.3333333333333</ele><time>2026-03-27T15:38:11.227Z</time></trkpt><trkpt lat="45.7638147" lon="8.9641972"><ele>411.0</ele><time>2026-03-27T15:38:15.229Z</time></trkpt><trkpt lat="45.7637413" lon="8.9642339"><ele>410.6666666666667</ele><time>2026-03-27T15:38:19.331Z</time></trkpt><trkpt lat="45.7636834" lon="8.9642729"><ele>410.33333333333337</ele><time>2026-03-27T15:38:23.295Z</time></trkpt><trkpt lat="45.7636246" lon="8.9643145"><ele>410.0</ele><time>2026-03-27T15:38:28.348Z</time></trkpt><trkpt lat="45.7635492" lon="8.9643829"><ele>409.6666666666667</ele><time>2026-03-27T15:38:33.228Z</time></trkpt><trkpt lat="45.7634833" lon="8.9644466"><ele>409.33333333333337</ele><time>2026-03-27T15:38:35.277Z</time></trkpt><trkpt lat="45.7634409" lon="8.96452"><ele>409.0</ele><time>2026-03-27T15:38:40.318Z</time></trkpt><trkpt lat="45.7633544" lon="8.9646485"><ele>409.0</ele><time>2026-03-27T15:38:43.297Z</time></trkpt><trkpt lat="45.7633096" lon="8.964743"><ele>409.0</ele><time>2026-03-27T15:38:47.289Z</time></trkpt><trkpt lat="45.7632542" lon="8.9647966"><ele>409.0</ele><time>2026-03-27T15:38:51.316Z</time></trkpt><trkpt lat="45.7632341" lon="8.9651094"><ele>409.0</ele><time>2026-03-27T15:39:03.229Z</time></trkpt><trkpt lat="45.7631891" lon="8.9652029"><ele>409.0</ele><time>2026-03-27T15:39:08.233Z</time></trkpt><trkpt lat="45.7631402" lon="8.9652786"><ele>408.00000000000006</ele><time>2026-03-27T15:39:13.309Z</time></trkpt><trkpt lat="45.7630917" lon="8.9653604"><ele>407.0</ele><time>2026-03-27T15:39:18.238Z</time></trkpt><trkpt lat="45.7630438" lon="8.9654482"><ele>406.0</ele><time>2026-03-27T15:39:23.279Z</time></trkpt><trkpt lat="45.7629342" lon="8.9655638"><ele>405.0</ele><time>2026-03-27T15:39:26.257Z</time></trkpt><trkpt lat="45.7628684" lon="8.965628"><ele>404.00000000000006</ele><time>2026-03-27T15:39:29.236Z</time></trkpt><trkpt lat="45.7628044" lon="8.9656707"><ele>403.0</ele><time>2026-03-27T15:39:33.246Z</time></trkpt><trkpt lat="45.7627121" lon="8.9657709"><ele>403.00000000000006</ele><time>2026-03-27T15:39:36.228Z</time></trkpt><trkpt lat="45.7626618" lon="8.9658276"><ele>403.0</ele><time>2026-03-27T15:39:38.293Z</time></trkpt><trkpt lat="45.7626016" lon="8.9658921"><ele>403.0</ele><time>2026-03-27T15:39:41.265Z</time></trkpt><trkpt lat="45.7625385" lon="8.965958"><ele>403.0</ele><time>2026-03-27T15:39:45.31Z</time></trkpt><trkpt lat="45.7624654" lon="8.9659992"><ele>403.00000000000006</ele><time>2026-03-27T15:39:50.246Z</time></trkpt><trkpt lat="45.762385" lon="8.9660672"><ele>403.0</ele><time>2026-03-27T15:39:54.325Z</time></trkpt><trkpt lat="45.762349" lon="8.9661466"><ele>403.00000000000006</ele><time>2026-03-27T15:39:58.229Z</time></trkpt><trkpt lat="45.7622316" lon="8.9661176"><ele>403.0</ele><time>2026-03-27T15:40:00.282Z</time></trkpt><trkpt lat="45.762167" lon="8.9661552"><ele>403.0</ele><time>2026-03-27T15:40:05.329Z</time></trkpt><trkpt lat="45.762087" lon="8.9662821"><ele>403.0</ele><time>2026-03-27T15:40:09.227Z</time></trkpt><trkpt lat="45.7620323" lon="8.9663391"><ele>403.00000000000006</ele><time>2026-03-27T15:40:13.342Z</time></trkpt><trkpt lat="45.7619696" lon="8.9663833"><ele>403.0</ele><time>2026-03-27T15:40:17.248Z</time></trkpt><trkpt lat="45.7619209" lon="8.9664575"><ele>403.00000000000006</ele><time>2026-03-27T15:40:22.294Z</time></trkpt><trkpt lat="45.7619051" lon="8.9665473"><ele>403.0</ele><time>2026-03-27T15:40:26.213Z</time></trkpt><trkpt lat="45.7619996" lon="8.9666801"><ele>403.0</ele><time>2026-03-27T15:40:33.207Z</time></trkpt><trkpt lat="45.7620492" lon="8.966756"><ele>403.0</ele><time>2026-03-27T15:40:35.229Z</time></trkpt><trkpt lat="45.7621099" lon="8.9668095"><ele>403.00000000000006</ele><time>2026-03-27T15:40:39.233Z</time></trkpt><trkpt lat="45.7621719" lon="8.9668845"><ele>403.0</ele><time>2026-03-27T15:40:43.243Z</time></trkpt><trkpt lat="45.7622422" lon="8.9669481"><ele>401.5</ele><time>2026-03-27T15:40:47.194Z</time></trkpt><trkpt lat="45.7623007" lon="8.9670116"><ele>400.0</ele><time>2026-03-27T15:40:52.839Z</time></trkpt><trkpt lat="45.7623624" lon="8.9671945"><ele>398.5</ele><time>2026-03-27T15:40:58.954Z</time></trkpt><trkpt lat="45.7623861" lon="8.9672783"><ele>397.0</ele><time>2026-03-27T15:41:01.229Z</time></trkpt><trkpt lat="45.7625209" lon="8.9674447"><ele>397.0</ele><time>2026-03-27T15:41:10.252Z</time></trkpt><trkpt lat="45.7625787" lon="8.9674827"><ele>397.0</ele><time>2026-03-27T15:41:13.325Z</time></trkpt><trkpt lat="45.7626204" lon="8.9675505"><ele>397.0</ele><time>2026-03-27T15:41:16.236Z</time></trkpt><trkpt lat="45.76267" lon="8.9676175"><ele>397.0</ele><time>2026-03-27T15:41:21.154Z</time></trkpt><trkpt lat="45.7627397" lon="8.9676672"><ele>397.0</ele><time>2026-03-27T15:41:30.268Z</time></trkpt><trkpt lat="45.7627798" lon="8.9677388"><ele>397.0</ele><time>2026-03-27T15:41:32.274Z</time></trkpt><trkpt lat="45.7628073" lon="8.9678302"><ele>397.0</ele><time>2026-03-27T15:41:34.226Z</time></trkpt><trkpt lat="45.7628394" lon="8.9679601"><ele>396.20000000000005</ele><time>2026-03-27T15:41:36.291Z</time></trkpt><trkpt lat="45.7629005" lon="8.9681676"><ele>395.4</ele><time>2026-03-27T15:41:41.207Z</time></trkpt><trkpt lat="45.762913" lon="8.9682637"><ele>394.6</ele><time>2026-03-27T15:41:44.304Z</time></trkpt><trkpt lat="45.7629038" lon="8.9684109"><ele>393.79999999999995</ele><time>2026-03-27T15:41:48.227Z</time></trkpt><trkpt lat="45.7628762" lon="8.9685257"><ele>393.0</ele><time>2026-03-27T15:41:50.261Z</time></trkpt><trkpt lat="45.7628449" lon="8.9686368"><ele>393.0</ele><time>2026-03-27T15:41:53.354Z</time></trkpt><trkpt lat="45.7628117" lon="8.9688007"><ele>393.0</ele><time>2026-03-27T15:41:56.227Z</time></trkpt><trkpt lat="45.762785" lon="8.968895"><ele>393.0</ele><time>2026-03-27T15:41:59.311Z</time></trkpt><trkpt lat="45.7627662" lon="8.9689856"><ele>393.0</ele><time>2026-03-27T15:42:06.301Z</time></trkpt><trkpt lat="45.7627019" lon="8.9691437"><ele>393.0</ele><time>2026-03-27T15:42:24.406Z</time></trkpt><trkpt lat="45.7626318" lon="8.9692324"><ele>392.42857142857144</ele><time>2026-03-27T15:42:45.262Z</time></trkpt><trkpt lat="45.7625792" lon="8.9692935"><ele>391.8571428571429</ele><time>2026-03-27T15:42:48.241Z</time></trkpt><trkpt lat="45.7625305" lon="8.9693527"><ele>391.28571428571433</ele><time>2026-03-27T15:42:51.212Z</time></trkpt><trkpt lat="45.7624846" lon="8.9694405"><ele>390.7142857142857</ele><time>2026-03-27T15:42:56.253Z</time></trkpt><trkpt lat="45.7624691" lon="8.9695288"><ele>390.1428571428571</ele><time>2026-03-27T15:43:01.417Z</time></trkpt><trkpt lat="45.7624041" lon="8.9695423"><ele>389.5714285714286</ele><time>2026-03-27T15:43:12.302Z</time></trkpt><trkpt lat="45.7623305" lon="8.9695807"><ele>389.0</ele><time>2026-03-27T15:43:17.867Z</time></trkpt><trkpt lat="45.7622691" lon="8.9696068"><ele>389.0</ele><time>2026-03-27T15:43:22.148Z</time></trkpt><trkpt lat="45.762204" lon="8.9695833"><ele>389.0</ele><time>2026-03-27T15:43:30.331Z</time></trkpt><trkpt lat="45.7620793" lon="8.9695857"><ele>389.0</ele><time>2026-03-27T15:43:36.247Z</time></trkpt><trkpt lat="45.7620087" lon="8.969567"><ele>389.0</ele><time>2026-03-27T15:43:42.319Z</time></trkpt><trkpt lat="45.7618883" lon="8.9695213"><ele>389.0</ele><time>2026-03-27T15:43:47.252Z</time></trkpt><trkpt lat="45.7618182" lon="8.9695218"><ele>388.16666666666663</ele><time>2026-03-27T15:43:52.189Z</time></trkpt><trkpt lat="45.7617445" lon="8.9695226"><ele>387.3333333333333</ele><time>2026-03-27T15:43:55.265Z</time></trkpt><trkpt lat="45.7616762" lon="8.9694961"><ele>386.5</ele><time>2026-03-27T15:43:58.348Z</time></trkpt><trkpt lat="45.7616067" lon="8.9694716"><ele>385.66666666666663</ele><time>2026-03-27T15:44:05.232Z</time></trkpt><trkpt lat="45.7615355" lon="8.9694597"><ele>384.8333333333333</ele><time>2026-03-27T15:44:09.31Z</time></trkpt><trkpt lat="45.7614554" lon="8.9694778"><ele>384.0</ele><time>2026-03-27T15:44:12.327Z</time></trkpt><trkpt lat="45.761375" lon="8.9695013"><ele>383.99999999999994</ele><time>2026-03-27T15:44:16.23Z</time></trkpt><trkpt lat="45.761304" lon="8.9695495"><ele>384.0</ele><time>2026-03-27T15:44:19.228Z</time></trkpt><trkpt lat="45.7612383" lon="8.9695863"><ele>384.0</ele><time>2026-03-27T15:44:22.302Z</time></trkpt><trkpt lat="45.7611621" lon="8.9696065"><ele>384.0</ele><time>2026-03-27T15:44:26.347Z</time></trkpt><trkpt lat="45.761085" lon="8.9696349"><ele>384.0</ele><time>2026-03-27T15:44:30.633Z</time></trkpt><trkpt lat="45.7610248" lon="8.9696633"><ele>383.99999999999994</ele><time>2026-03-27T15:44:33.85Z</time></trkpt><trkpt lat="45.7609632" lon="8.969683"><ele>384.0</ele><time>2026-03-27T15:44:37.154Z</time></trkpt><trkpt lat="45.7608869" lon="8.9697097"><ele>383.79999999999995</ele><time>2026-03-27T15:44:41.319Z</time></trkpt><trkpt lat="45.7607367" lon="8.9698427"><ele>383.59999999999997</ele><time>2026-03-27T15:44:50.254Z</time></trkpt><trkpt lat="45.7606658" lon="8.9698607"><ele>383.4</ele><time>2026-03-27T15:44:57.357Z</time></trkpt><trkpt lat="45.760562" lon="8.9698916"><ele>383.2</ele><time>2026-03-27T15:45:03.313Z</time></trkpt><trkpt lat="45.7605009" lon="8.9698685"><ele>383.0</ele><time>2026-03-27T15:45:08.514Z</time></trkpt><trkpt lat="45.7604157" lon="8.9698475"><ele>383.0</ele><time>2026-03-27T15:45:13.893Z</time></trkpt><trkpt lat="45.7603416" lon="8.96984"><ele>383.0</ele><time>2026-03-27T15:45:16.094Z</time></trkpt><trkpt lat="45.7602712" lon="8.969773"><ele>383.0</ele><time>2026-03-27T15:45:20.269Z</time></trkpt><trkpt lat="45.760216" lon="8.9697143"><ele>383.0</ele><time>2026-03-27T15:45:23.169Z</time></trkpt><trkpt lat="45.7601482" lon="8.9696644"><ele>383.0</ele><time>2026-03-27T15:45:26.308Z</time></trkpt><trkpt lat="45.7600894" lon="8.9696062"><ele>383.0</ele><time>2026-03-27T15:45:30.235Z</time></trkpt><trkpt lat="45.7600478" lon="8.9695275"><ele>383.0</ele><time>2026-03-27T15:45:34.347Z</time></trkpt><trkpt lat="45.7600239" lon="8.9694398"><ele>382.83333333333337</ele><time>2026-03-27T15:45:37.337Z</time></trkpt><trkpt lat="45.7600134" lon="8.9693305"><ele>382.6666666666667</ele><time>2026-03-27T15:45:40.247Z</time></trkpt><trkpt lat="45.7600246" lon="8.9692275"><ele>382.5</ele><time>2026-03-27T15:45:43.33Z</time></trkpt><trkpt lat="45.7600122" lon="8.9691369"><ele>382.3333333333333</ele><time>2026-03-27T15:45:46.432Z</time></trkpt><trkpt lat="45.7599829" lon="8.9690354"><ele>382.16666666666663</ele><time>2026-03-27T15:45:50.208Z</time></trkpt><trkpt lat="45.7599441" lon="8.9689388"><ele>382.0</ele><time>2026-03-27T15:45:54.292Z</time></trkpt><trkpt lat="45.7598974" lon="8.9688399"><ele>382.0</ele><time>2026-03-27T15:45:58.302Z</time></trkpt><trkpt lat="45.7598559" lon="8.9687607"><ele>382.0</ele><time>2026-03-27T15:46:01.28Z</time></trkpt><trkpt lat="45.7597923" lon="8.9686427"><ele>382.0</ele><time>2026-03-27T15:46:06.227Z</time></trkpt><trkpt lat="45.7597975" lon="8.9685416"><ele>382.0</ele><time>2026-03-27T15:46:07.21Z</time></trkpt><trkpt lat="45.7597489" lon="8.9684386"><ele>382.0</ele><time>2026-03-27T15:46:09.28Z</time></trkpt><trkpt lat="45.7597234" lon="8.968338"><ele>382.0</ele><time>2026-03-27T15:46:14.321Z</time></trkpt><trkpt lat="45.7596848" lon="8.9682591"><ele>385.0</ele><time>2026-03-27T15:46:21.309Z</time></trkpt><trkpt lat="45.7596313" lon="8.9682051"><ele>385.0</ele><time>2026-03-27T15:46:32.078Z</time></trkpt><trkpt lat="45.759563" lon="8.9681779"><ele>385.0</ele><time>2026-03-27T15:46:41.244Z</time></trkpt></trkseg></trk></gpx>